Volcan De Tauce — EAGW — position and weather

sailwx.info

Track history (hours):
 
Tides and Currents Weather Stations Pressure Air Temp Water Temp Dewpoint Dewpoint Depression Visibility Wind Speed Wind Dir Waves Ship Positions

Volcan De Tauce

Last reported at 2017-Jun-23 06:59 UTC. Time now 2017-Jun-23 07:03 UTC.
Position N 28°30' W 013°51'.

Length 120 m; draft 4.2 m.

Type: Passenger vessel. MMSI: 224761000.

Date/timePositionNaut miles runAvg speedWind from/ knotsBaromVisibWave heightAir tempDewpointWater temp
2017-Jun-23 06:59N 28°30' W 013°51'0 0.0
2017-Jun-23 06:07N 28°30' W 013°51'0 0.0
2017-Jun-23 05:54N 28°30' W 013°51'0 1.1
2017-Jun-23 05:30N 28°29' W 013°51'713.5
2017-Jun-23 05:01N 28°23' W 013°49'815.4
2017-Jun-23 04:30N 28°16' W 013°52'714.5
2017-Jun-23 04:00N 28°11' W 013°58'915.7
2017-Jun-23 03:26N 28°07' W 014°07'715.9
2017-Jun-23 03:00N 28°04' W 014°14'815.4
2017-Jun-23 02:30N 28°01' W 014°22'815.9
2017-Jun-23 02:01N 28°02' W 014°31'815.8
2017-Jun-23 01:31N 28°03' W 014°40'815.7
2017-Jun-23 01:01N 28°04' W 014°49'815.7
2017-Jun-23 00:30N 28°04' W 014°58'815.5
2017-Jun-23 00:01N 28°05' W 015°06'816.0
2017-Jun-22 23:30N 28°06' W 015°16'815.7
2017-Jun-22 23:00N 28°07' W 015°24'1 2.5
2017-Jun-22 22:30N 28°08' W 015°25'0 0.0
2017-Jun-22 22:00N 28°08' W 015°25'0 0.0
2017-Jun-22 21:30N 28°08' W 015°25'0 0.0
2017-Jun-22 21:00N 28°08' W 015°25'0 0.0
2017-Jun-22 20:30N 28°08' W 015°25'0 0.0
2017-Jun-22 20:01N 28°08' W 015°25'0 0.0
2017-Jun-22 19:31N 28°08' W 015°25'0 0.0
2017-Jun-22 19:00N 28°08' W 015°25'0 0.0
2017-Jun-22 18:30N 28°08' W 015°25'0 0.0
2017-Jun-22 18:00N 28°08' W 015°25'0 0.0
2017-Jun-22 17:31N 28°08' W 015°25'0 0.0
2017-Jun-22 17:00N 28°08' W 015°25'0 0.1
2017-Jun-22 16:30N 28°08' W 015°25'4 9.0
2017-Jun-22 16:00N 28°07' W 015°20'816.9
2017-Jun-22 15:30N 28°06' W 015°11'816.9
2017-Jun-22 15:00N 28°05' W 015°01'816.4
2017-Jun-22 14:30N 28°04' W 014°52'1616.5
2017-Jun-22 13:31N 28°02' W 014°33'816.4
2017-Jun-22 13:01N 28°01' W 014°24'816.3
2017-Jun-22 12:31N 28°03' W 014°15'916.9
2017-Jun-22 12:00N 28°08' W 014°06'816.7
2017-Jun-22 11:31N 28°11' W 013°58'1215.3
2017-Jun-22 10:44N 28°21' W 013°51'516.2
2017-Jun-22 10:26N 28°26' W 013°49'5 3.5
2017-Jun-22 09:06N 28°30' W 013°51'0 0.0
2017-Jun-22 08:55N 28°30' W 013°51'0 0.0
2017-Jun-22 08:30N 28°30' W 013°51'0 0.0
2017-Jun-22 08:01N 28°30' W 013°51'0 0.0
2017-Jun-22 07:29N 28°30' W 013°51'0 0.0
2017-Jun-22 07:00N 28°30' W 013°51'0 0.0
2017-Jun-22 06:23N 28°30' W 013°51'0 0.0
2017-Jun-22 06:01N 28°30' W 013°51'4 7.5
2017-Jun-22 05:30N 28°26' W 013°49'714.7
2017-Jun-22 05:00N 28°19' W 013°51'714.5
2017-Jun-22 04:30N 28°13' W 013°55'715.0
2017-Jun-22 04:00N 28°09' W 014°03'815.7
2017-Jun-22 03:30N 28°05' W 014°10'815.7
2017-Jun-22 03:00N 28°02' W 014°18'815.5
2017-Jun-22 02:28N 28°01' W 014°28'1515.8
2017-Jun-22 01:31N 28°03' W 014°44'015.5
2017-Jun-22 01:30N 28°03' W 014°45'816.1
2017-Jun-22 01:00N 28°04' W 014°54'815.7
2017-Jun-22 00:30N 28°05' W 015°03'815.7
2017-Jun-22 00:00N 28°06' W 015°11'816.2
2017-Jun-21 23:30N 28°07' W 015°21'4 8.1
2017-Jun-21 23:00N 28°08' W 015°25'0 0.0
2017-Jun-21 22:30N 28°08' W 015°25'0 0.0
2017-Jun-21 22:01N 28°08' W 015°25'0 0.0
2017-Jun-21 21:31N 28°08' W 015°25'0 0.0
2017-Jun-21 21:01N 28°08' W 015°25'0 0.0
2017-Jun-21 20:31N 28°08' W 015°25'0 0.0
2017-Jun-21 20:00N 28°08' W 015°25'0 0.0
2017-Jun-21 19:31N 28°08' W 015°25'0 0.0
2017-Jun-21 19:01N 28°08' W 015°25'0 0.0
2017-Jun-21 18:30N 28°08' W 015°25'0 0.0
2017-Jun-21 18:01N 28°08' W 015°25'0 0.0
2017-Jun-21 17:31N 28°08' W 015°25'0 0.0
2017-Jun-21 17:00N 28°08' W 015°25'1 1.2
2017-Jun-21 16:31N 28°08' W 015°25'612.7
2017-Jun-21 16:00N 28°06' W 015°17'816.8
2017-Jun-21 15:30N 28°05' W 015°08'816.6
2017-Jun-21 15:00N 28°04' W 014°59'1616.4
2017-Jun-21 14:00N 28°02' W 014°40'816.2
2017-Jun-21 13:30N 28°02' W 014°31'816.5
2017-Jun-21 13:00N 28°01' W 014°22'1016.7
2017-Jun-21 12:25N 28°05' W 014°12'716.7
2017-Jun-21 12:00N 28°08' W 014°05'24 3.8
2017-Jun-21 05:38N 28°29' W 013°51'311.3
2017-Jun-21 05:23N 28°27' W 013°50'615.1
2017-Jun-21 04:59N 28°21' W 013°51'816.1
2017-Jun-21 04:30N 28°14' W 013°54'815.6
2017-Jun-21 04:00N 28°10' W 014°01'815.7
2017-Jun-21 03:30N 28°06' W 014°09'815.9
2017-Jun-21 03:00N 28°02' W 014°17'915.7
2017-Jun-21 02:24N 28°01' W 014°28'1016.1
2017-Jun-21 01:48N 28°02' W 014°38'515.7
2017-Jun-21 01:30N 28°03' W 014°44'816.6
2017-Jun-21 01:00N 28°04' W 014°53'816.3
2017-Jun-21 00:31N 28°05' W 015°02'816.0
2017-Jun-21 00:01N 28°06' W 015°11'816.3
2017-Jun-20 23:31N 28°07' W 015°20'4 8.6
2017-Jun-20 23:00N 28°08' W 015°25'0 0.0
2017-Jun-20 22:30N 28°08' W 015°25'0 0.0
2017-Jun-20 22:00N 28°08' W 015°25'0 0.0
2017-Jun-20 21:30N 28°08' W 015°25'0 0.0
2017-Jun-20 21:00N 28°08' W 015°25'0 0.0
2017-Jun-20 20:30N 28°08' W 015°25'0 0.0
2017-Jun-20 20:00N 28°08' W 015°25'0 0.0
2017-Jun-20 19:30N 28°08' W 015°25'0 0.0
2017-Jun-20 19:01N 28°08' W 015°25'0 0.0
2017-Jun-20 18:31N 28°08' W 015°25'0 0.0
2017-Jun-20 18:00N 28°08' W 015°25'0 0.0
2017-Jun-20 17:30N 28°08' W 015°25'0 0.0
2017-Jun-20 17:01N 28°08' W 015°25'0 0.0
2017-Jun-20 16:31N 28°08' W 015°25'3 6.9
2017-Jun-20 16:00N 28°07' W 015°21'816.7
2017-Jun-20 15:30N 28°06' W 015°12'816.4
2017-Jun-20 15:00N 28°05' W 015°03'816.3
2017-Jun-20 14:30N 28°04' W 014°53'1716.7
2017-Jun-20 13:30N 28°02' W 014°35'916.5
2017-Jun-20 12:59N 28°01' W 014°25'1416.4
2017-Jun-20 12:08N 28°06' W 014°10'217.2
2017-Jun-20 12:00N 28°07' W 014°08'5 0.6
2017-Jun-20 03:45N 28°09' W 014°03'415.8
2017-Jun-20 03:30N 28°07' W 014°07'3115.3
2017-Jun-20 01:29N 28°03' W 014°41'816.4
2017-Jun-20 01:00N 28°04' W 014°50'816.2
2017-Jun-20 00:31N 28°05' W 014°59'816.0
2017-Jun-20 00:00N 28°05' W 015°08'816.4
2017-Jun-19 23:30N 28°06' W 015°17'713.0
2017-Jun-19 23:00N 28°08' W 015°25'0 1.0
2017-Jun-19 22:30N 28°08' W 015°25'0 0.0
2017-Jun-19 22:00N 28°08' W 015°25'0 0.0
2017-Jun-19 21:30N 28°08' W 015°25'0 0.0
2017-Jun-19 21:00N 28°08' W 015°25'0 0.0
2017-Jun-19 20:30N 28°08' W 015°25'0 0.0
2017-Jun-19 20:00N 28°08' W 015°25'0 0.0
2017-Jun-19 19:30N 28°08' W 015°25'0 0.0
2017-Jun-19 19:00N 28°08' W 015°25'0 0.0
2017-Jun-19 18:30N 28°08' W 015°25'0 0.0
2017-Jun-19 18:00N 28°08' W 015°25'0 0.0
2017-Jun-19 17:30N 28°08' W 015°25'0 0.0
2017-Jun-19 17:00N 28°08' W 015°25'0 0.0
2017-Jun-19 16:30N 28°08' W 015°25'0 0.0
2017-Jun-19 16:00N 28°08' W 015°25'0 0.0
2017-Jun-19 15:30N 28°08' W 015°25'0 0.0
2017-Jun-19 15:00N 28°08' W 015°25'0 0.0
2017-Jun-19 14:30N 28°08' W 015°25'0 0.0
2017-Jun-19 13:30N 28°08' W 015°25'0 0.0
2017-Jun-19 13:00N 28°08' W 015°25'0 0.0
2017-Jun-19 12:30N 28°08' W 015°25'0 0.0
2017-Jun-19 12:00N 28°08' W 015°25'0 0.0
2017-Jun-19 11:30N 28°08' W 015°25'0 0.0
2017-Jun-19 11:00N 28°08' W 015°25'0 0.0
2017-Jun-19 10:30N 28°08' W 015°25'0 0.0
2017-Jun-19 10:00N 28°08' W 015°25'0 0.0
2017-Jun-19 09:30N 28°08' W 015°25'0 0.0
2017-Jun-19 09:00N 28°08' W 015°25'0 0.0
2017-Jun-19 08:30N 28°08' W 015°25'0 0.0
2017-Jun-19 08:00N 28°08' W 015°25'0 0.0
2017-Jun-19 07:30N 28°08' W 015°25'0 0.0
2017-Jun-19 07:00N 28°08' W 015°25'0 0.0
2017-Jun-19 06:30N 28°08' W 015°25'0 0.0
2017-Jun-19 06:00N 28°08' W 015°25'0 0.0
2017-Jun-19 05:30N 28°08' W 015°25'0 0.0
2017-Jun-19 05:00N 28°08' W 015°25'0 0.0
2017-Jun-19 04:31N 28°08' W 015°25'0 0.0
2017-Jun-19 04:00N 28°08' W 015°25'0 0.0
2017-Jun-19 03:31N 28°08' W 015°25'0 0.0
2017-Jun-19 03:00N 28°08' W 015°25'0 0.0
2017-Jun-19 02:30N 28°08' W 015°25'0 0.0
2017-Jun-19 02:00N 28°08' W 015°25'0 0.0
2017-Jun-19 01:30N 28°08' W 015°25'0 0.0
2017-Jun-19 01:00N 28°08' W 015°25'0 0.0
2017-Jun-19 00:30N 28°08' W 015°25'0 0.0
2017-Jun-19 00:00N 28°08' W 015°25'0 0.0
2017-Jun-18 23:30N 28°08' W 015°25'0 0.0
2017-Jun-18 23:00N 28°08' W 015°25'0 0.0
2017-Jun-18 22:30N 28°08' W 015°25'0 0.0
2017-Jun-18 22:00N 28°08' W 015°25'0 0.0
2017-Jun-18 21:30N 28°08' W 015°25'0 0.0
2017-Jun-18 21:00N 28°08' W 015°25'0 0.0
2017-Jun-18 20:30N 28°08' W 015°25'0 0.0
2017-Jun-18 20:00N 28°08' W 015°25'0 0.0
2017-Jun-18 19:30N 28°08' W 015°25'0 0.0
2017-Jun-18 19:00N 28°08' W 015°25'0 0.0
2017-Jun-18 18:31N 28°08' W 015°25'0 0.0
2017-Jun-18 18:00N 28°08' W 015°25'0 0.0
2017-Jun-18 17:30N 28°08' W 015°25'0 0.0
2017-Jun-18 17:00N 28°08' W 015°25'0 0.0
2017-Jun-18 16:30N 28°08' W 015°25'0 0.0
2017-Jun-18 16:00N 28°08' W 015°25'0 0.0
2017-Jun-18 15:30N 28°08' W 015°25'0 0.0
2017-Jun-18 15:00N 28°08' W 015°25'0 0.0
2017-Jun-18 14:00N 28°08' W 015°25'0 0.0
2017-Jun-18 13:30N 28°08' W 015°25'0 0.0
2017-Jun-18 13:00N 28°08' W 015°25'0 0.0
2017-Jun-18 12:31N 28°08' W 015°25'0 0.0
2017-Jun-18 12:00N 28°08' W 015°25'0 0.0
2017-Jun-18 11:30N 28°08' W 015°25'0 0.0
2017-Jun-18 11:00N 28°08' W 015°25'0 0.0
2017-Jun-18 10:30N 28°08' W 015°25'0 0.0
2017-Jun-18 10:00N 28°08' W 015°25'0 0.0
2017-Jun-18 09:30N 28°08' W 015°25'0 0.0
2017-Jun-18 09:00N 28°08' W 015°25'0 0.0
2017-Jun-18 08:30N 28°08' W 015°25'0 0.0
2017-Jun-18 08:00N 28°08' W 015°25'0 0.0
2017-Jun-18 07:30N 28°08' W 015°25'0 0.0
2017-Jun-18 07:00N 28°08' W 015°25'0 0.0
2017-Jun-18 06:30N 28°08' W 015°25'0 0.0
2017-Jun-18 06:00N 28°08' W 015°25'0 0.0
2017-Jun-18 05:30N 28°08' W 015°25'0 0.0
2017-Jun-18 05:00N 28°08' W 015°25'0 0.0
2017-Jun-18 04:30N 28°08' W 015°25'0 0.0
2017-Jun-18 04:00N 28°08' W 015°25'0 0.0
2017-Jun-18 03:30N 28°08' W 015°25'0 0.0
2017-Jun-18 03:00N 28°08' W 015°25'0 0.0
2017-Jun-18 02:30N 28°08' W 015°25'0 0.0
2017-Jun-18 02:00N 28°08' W 015°25'0 0.0
2017-Jun-18 01:30N 28°08' W 015°25'0 0.0
2017-Jun-18 01:00N 28°08' W 015°25'0 0.0
2017-Jun-18 00:30N 28°08' W 015°25'0 0.0
2017-Jun-18 00:00N 28°08' W 015°25'0 0.0
2017-Jun-17 23:31N 28°08' W 015°25'0 0.0
2017-Jun-17 23:00N 28°08' W 015°25'0 0.0
2017-Jun-17 22:31N 28°08' W 015°25'0 0.0
2017-Jun-17 22:00N 28°08' W 015°25'0 0.0
2017-Jun-17 21:30N 28°08' W 015°25'0 0.0
2017-Jun-17 21:00N 28°08' W 015°25'0 0.0
2017-Jun-17 20:30N 28°08' W 015°25'0 0.0
2017-Jun-17 20:00N 28°08' W 015°25'0 0.0
2017-Jun-17 19:30N 28°08' W 015°25'0 0.0
2017-Jun-17 19:00N 28°08' W 015°25'0 0.0
2017-Jun-17 18:30N 28°08' W 015°25'0 0.0
2017-Jun-17 18:00N 28°08' W 015°25'0 0.0
2017-Jun-17 17:30N 28°08' W 015°25'0 0.0
2017-Jun-17 17:00N 28°08' W 015°25'0 0.0
2017-Jun-17 16:30N 28°08' W 015°25'3 6.2
2017-Jun-17 16:01N 28°07' W 015°22'816.4
2017-Jun-17 15:30N 28°06' W 015°13'816.4
2017-Jun-17 15:01N 28°05' W 015°03'816.3
2017-Jun-17 14:30N 28°04' W 014°54'1616.4
2017-Jun-17 13:30N 28°02' W 014°36'816.0
2017-Jun-17 13:00N 28°01' W 014°27'1116.1
2017-Jun-17 12:20N 28°03' W 014°15'617.0
2017-Jun-17 11:58N 28°06' W 014°09'27 4.2
2017-Jun-17 05:38N 28°27' W 013°50'416.0
2017-Jun-17 05:24N 28°23' W 013°50'1815.3
2017-Jun-17 04:13N 28°09' W 014°02'316.5
2017-Jun-17 04:00N 28°08' W 014°06'3315.2
2017-Jun-17 01:48N 28°03' W 014°43'515.8
2017-Jun-17 01:31N 28°03' W 014°48'815.7
2017-Jun-17 01:00N 28°04' W 014°57'815.6
2017-Jun-17 00:30N 28°05' W 015°06'815.6
2017-Jun-17 00:00N 28°06' W 015°15'815.7
2017-Jun-16 23:30N 28°07' W 015°23'2 3.4
2017-Jun-16 23:00N 28°08' W 015°25'0 0.0
2017-Jun-16 22:30N 28°08' W 015°25'0 0.0
2017-Jun-16 22:00N 28°08' W 015°25'0 0.0
2017-Jun-16 21:30N 28°08' W 015°25'0 0.0
2017-Jun-16 21:00N 28°08' W 015°25'0 0.0
2017-Jun-16 20:30N 28°08' W 015°25'0 0.0
2017-Jun-16 20:00N 28°08' W 015°25'0 0.0
2017-Jun-16 19:30N 28°08' W 015°25'0 0.0
2017-Jun-16 19:00N 28°08' W 015°25'0 0.0
2017-Jun-16 18:30N 28°08' W 015°25'0 0.0
2017-Jun-16 18:00N 28°08' W 015°25'0 0.0
2017-Jun-16 17:30N 28°08' W 015°25'0 0.0
2017-Jun-16 17:00N 28°08' W 015°25'0 0.0
2017-Jun-16 16:30N 28°08' W 015°25'4 8.6
2017-Jun-16 16:00N 28°06' W 015°20'815.8
2017-Jun-16 15:30N 28°06' W 015°11'815.7
2017-Jun-16 15:00N 28°05' W 015°03'815.8
2017-Jun-16 14:30N 28°04' W 014°54'1615.7
2017-Jun-16 13:30N 28°02' W 014°36'915.9
2017-Jun-16 12:58N 28°01' W 014°26'1216.2
2017-Jun-16 12:15N 28°04' W 014°13'517.1
2017-Jun-16 11:56N 28°07' W 014°08'43 2.0
2017-Jun-15 14:42N 28°04' W 014°57'1116.0
2017-Jun-15 14:00N 28°03' W 014°44'815.8
2017-Jun-15 13:30N 28°02' W 014°35'816.1
2017-Jun-15 12:59N 28°01' W 014°26'1116.1
2017-Jun-15 12:19N 28°04' W 014°14'617.2
2017-Jun-15 12:00N 28°07' W 014°09'1 0.0
2017-Jun-14 12:00N 28°07' W 014°08'5 0.6
2017-Jun-14 03:49N 28°09' W 014°03'3515.0
2017-Jun-14 01:31N 28°03' W 014°41'315.9
2017-Jun-14 01:20N 28°03' W 014°44'515.8
2017-Jun-14 01:00N 28°04' W 014°50'815.8
2017-Jun-14 00:30N 28°05' W 014°59'815.8
2017-Jun-14 00:00N 28°05' W 015°08'815.6
2017-Jun-13 23:30N 28°06' W 015°17'714.1
2017-Jun-13 23:00N 28°08' W 015°25'1 1.4
2017-Jun-13 22:30N 28°08' W 015°25'0 0.0
2017-Jun-13 22:00N 28°08' W 015°25'0 0.0
2017-Jun-13 21:30N 28°08' W 015°25'0 0.0
2017-Jun-13 21:00N 28°08' W 015°25'0 0.0
2017-Jun-13 20:30N 28°08' W 015°25'0 0.0
2017-Jun-13 20:00N 28°08' W 015°25'0 0.0
2017-Jun-13 19:31N 28°08' W 015°25'0 0.0
2017-Jun-13 19:01N 28°08' W 015°25'0 0.0
2017-Jun-13 18:31N 28°08' W 015°25'0 0.0
2017-Jun-13 18:01N 28°08' W 015°25'0 0.0
2017-Jun-13 17:31N 28°08' W 015°25'0 0.0
2017-Jun-13 17:01N 28°08' W 015°25'0 0.1
2017-Jun-13 16:31N 28°08' W 015°25'4 8.6
2017-Jun-13 16:00N 28°06' W 015°20'816.1
2017-Jun-13 15:30N 28°06' W 015°11'815.9
2017-Jun-13 15:00N 28°05' W 015°02'1616.3
2017-Jun-13 14:00N 28°03' W 014°44'816.0
2017-Jun-13 13:30N 28°02' W 014°35'916.7
2017-Jun-13 13:00N 28°01' W 014°25'1116.5
2017-Jun-13 12:21N 28°04' W 014°14'617.2
2017-Jun-13 12:00N 28°07' W 014°08'  
Track history (hours):
 
Tides and Currents Weather Stations Pressure Air Temp Water Temp Dewpoint Dewpoint Depression Visibility Wind Speed Wind Dir Waves Ship Positions

Volcan De Tauce

Last reported at 2017-Jun-23 06:59 UTC. Time now 2017-Jun-23 07:03 UTC.
Position N 28°30' W 013°51'.

Length 120 m; draft 4.2 m.

Type: Passenger vessel. MMSI: 224761000.

Date/timePositionNaut miles runAvg speedWind from/ knotsBaromVisibWave heightAir tempDewpointWater temp
2017-Jun-23 06:59N 28°30' W 013°51'0 0.0
2017-Jun-23 06:07N 28°30' W 013°51'0 0.0
2017-Jun-23 05:54N 28°30' W 013°51'0 1.1
2017-Jun-23 05:30N 28°29' W 013°51'713.5
2017-Jun-23 05:01N 28°23' W 013°49'815.4
2017-Jun-23 04:30N 28°16' W 013°52'714.5
2017-Jun-23 04:00N 28°11' W 013°58'915.7
2017-Jun-23 03:26N 28°07' W 014°07'715.9
2017-Jun-23 03:00N 28°04' W 014°14'815.4
2017-Jun-23 02:30N 28°01' W 014°22'815.9
2017-Jun-23 02:01N 28°02' W 014°31'815.8
2017-Jun-23 01:31N 28°03' W 014°40'815.7
2017-Jun-23 01:01N 28°04' W 014°49'815.7
2017-Jun-23 00:30N 28°04' W 014°58'815.5
2017-Jun-23 00:01N 28°05' W 015°06'816.0
2017-Jun-22 23:30N 28°06' W 015°16'815.7
2017-Jun-22 23:00N 28°07' W 015°24'1 2.5
2017-Jun-22 22:30N 28°08' W 015°25'0 0.0
2017-Jun-22 22:00N 28°08' W 015°25'0 0.0
2017-Jun-22 21:30N 28°08' W 015°25'0 0.0
2017-Jun-22 21:00N 28°08' W 015°25'0 0.0
2017-Jun-22 20:30N 28°08' W 015°25'0 0.0
2017-Jun-22 20:01N 28°08' W 015°25'0 0.0
2017-Jun-22 19:31N 28°08' W 015°25'0 0.0
2017-Jun-22 19:00N 28°08' W 015°25'0 0.0
2017-Jun-22 18:30N 28°08' W 015°25'0 0.0
2017-Jun-22 18:00N 28°08' W 015°25'0 0.0
2017-Jun-22 17:31N 28°08' W 015°25'0 0.0
2017-Jun-22 17:00N 28°08' W 015°25'0 0.1
2017-Jun-22 16:30N 28°08' W 015°25'4 9.0
2017-Jun-22 16:00N 28°07' W 015°20'816.9
2017-Jun-22 15:30N 28°06' W 015°11'816.9
2017-Jun-22 15:00N 28°05' W 015°01'816.4
2017-Jun-22 14:30N 28°04' W 014°52'1616.5
2017-Jun-22 13:31N 28°02' W 014°33'816.4
2017-Jun-22 13:01N 28°01' W 014°24'816.3
2017-Jun-22 12:31N 28°03' W 014°15'916.9
2017-Jun-22 12:00N 28°08' W 014°06'816.7
2017-Jun-22 11:31N 28°11' W 013°58'1215.3
2017-Jun-22 10:44N 28°21' W 013°51'516.2
2017-Jun-22 10:26N 28°26' W 013°49'5 3.5
2017-Jun-22 09:06N 28°30' W 013°51'0 0.0
2017-Jun-22 08:55N 28°30' W 013°51'0 0.0
2017-Jun-22 08:30N 28°30' W 013°51'0 0.0
2017-Jun-22 08:01N 28°30' W 013°51'0 0.0
2017-Jun-22 07:29N 28°30' W 013°51'0 0.0
2017-Jun-22 07:00N 28°30' W 013°51'0 0.0
2017-Jun-22 06:23N 28°30' W 013°51'0 0.0
2017-Jun-22 06:01N 28°30' W 013°51'4 7.5
2017-Jun-22 05:30N 28°26' W 013°49'714.7
2017-Jun-22 05:00N 28°19' W 013°51'714.5
2017-Jun-22 04:30N 28°13' W 013°55'715.0
2017-Jun-22 04:00N 28°09' W 014°03'815.7
2017-Jun-22 03:30N 28°05' W 014°10'815.7
2017-Jun-22 03:00N 28°02' W 014°18'815.5
2017-Jun-22 02:28N 28°01' W 014°28'1515.8
2017-Jun-22 01:31N 28°03' W 014°44'015.5
2017-Jun-22 01:30N 28°03' W 014°45'816.1
2017-Jun-22 01:00N 28°04' W 014°54'815.7
2017-Jun-22 00:30N 28°05' W 015°03'815.7
2017-Jun-22 00:00N 28°06' W 015°11'816.2
2017-Jun-21 23:30N 28°07' W 015°21'4 8.1
2017-Jun-21 23:00N 28°08' W 015°25'0 0.0
2017-Jun-21 22:30N 28°08' W 015°25'0 0.0
2017-Jun-21 22:01N 28°08' W 015°25'0 0.0
2017-Jun-21 21:31N 28°08' W 015°25'0 0.0
2017-Jun-21 21:01N 28°08' W 015°25'0 0.0
2017-Jun-21 20:31N 28°08' W 015°25'0 0.0
2017-Jun-21 20:00N 28°08' W 015°25'0 0.0
2017-Jun-21 19:31N 28°08' W 015°25'0 0.0
2017-Jun-21 19:01N 28°08' W 015°25'0 0.0
2017-Jun-21 18:30N 28°08' W 015°25'0 0.0
2017-Jun-21 18:01N 28°08' W 015°25'0 0.0
2017-Jun-21 17:31N 28°08' W 015°25'0 0.0
2017-Jun-21 17:00N 28°08' W 015°25'1 1.2
2017-Jun-21 16:31N 28°08' W 015°25'612.7
2017-Jun-21 16:00N 28°06' W 015°17'816.8
2017-Jun-21 15:30N 28°05' W 015°08'816.6
2017-Jun-21 15:00N 28°04' W 014°59'1616.4
2017-Jun-21 14:00N 28°02' W 014°40'816.2
2017-Jun-21 13:30N 28°02' W 014°31'816.5
2017-Jun-21 13:00N 28°01' W 014°22'1016.7
2017-Jun-21 12:25N 28°05' W 014°12'716.7
2017-Jun-21 12:00N 28°08' W 014°05'24 3.8
2017-Jun-21 05:38N 28°29' W 013°51'311.3
2017-Jun-21 05:23N 28°27' W 013°50'615.1
2017-Jun-21 04:59N 28°21' W 013°51'816.1
2017-Jun-21 04:30N 28°14' W 013°54'815.6
2017-Jun-21 04:00N 28°10' W 014°01'815.7
2017-Jun-21 03:30N 28°06' W 014°09'815.9
2017-Jun-21 03:00N 28°02' W 014°17'915.7
2017-Jun-21 02:24N 28°01' W 014°28'1016.1
2017-Jun-21 01:48N 28°02' W 014°38'515.7
2017-Jun-21 01:30N 28°03' W 014°44'816.6
2017-Jun-21 01:00N 28°04' W 014°53'816.3
2017-Jun-21 00:31N 28°05' W 015°02'816.0
2017-Jun-21 00:01N 28°06' W 015°11'816.3
2017-Jun-20 23:31N 28°07' W 015°20'4 8.6
2017-Jun-20 23:00N 28°08' W 015°25'0 0.0
2017-Jun-20 22:30N 28°08' W 015°25'0 0.0
2017-Jun-20 22:00N 28°08' W 015°25'0 0.0
2017-Jun-20 21:30N 28°08' W 015°25'0 0.0
2017-Jun-20 21:00N 28°08' W 015°25'0 0.0
2017-Jun-20 20:30N 28°08' W 015°25'0 0.0
2017-Jun-20 20:00N 28°08' W 015°25'0 0.0
2017-Jun-20 19:30N 28°08' W 015°25'0 0.0
2017-Jun-20 19:01N 28°08' W 015°25'0 0.0
2017-Jun-20 18:31N 28°08' W 015°25'0 0.0
2017-Jun-20 18:00N 28°08' W 015°25'0 0.0
2017-Jun-20 17:30N 28°08' W 015°25'0 0.0
2017-Jun-20 17:01N 28°08' W 015°25'0 0.0
2017-Jun-20 16:31N 28°08' W 015°25'3 6.9
2017-Jun-20 16:00N 28°07' W 015°21'816.7
2017-Jun-20 15:30N 28°06' W 015°12'816.4
2017-Jun-20 15:00N 28°05' W 015°03'816.3
2017-Jun-20 14:30N 28°04' W 014°53'1716.7
2017-Jun-20 13:30N 28°02' W 014°35'916.5
2017-Jun-20 12:59N 28°01' W 014°25'1416.4
2017-Jun-20 12:08N 28°06' W 014°10'217.2
2017-Jun-20 12:00N 28°07' W 014°08'5 0.6
2017-Jun-20 03:45N 28°09' W 014°03'415.8
2017-Jun-20 03:30N 28°07' W 014°07'3115.3
2017-Jun-20 01:29N 28°03' W 014°41'816.4
2017-Jun-20 01:00N 28°04' W 014°50'816.2
2017-Jun-20 00:31N 28°05' W 014°59'816.0
2017-Jun-20 00:00N 28°05' W 015°08'816.4
2017-Jun-19 23:30N 28°06' W 015°17'713.0
2017-Jun-19 23:00N 28°08' W 015°25'0 1.0
2017-Jun-19 22:30N 28°08' W 015°25'0 0.0
2017-Jun-19 22:00N 28°08' W 015°25'0 0.0
2017-Jun-19 21:30N 28°08' W 015°25'0 0.0
2017-Jun-19 21:00N 28°08' W 015°25'0 0.0
2017-Jun-19 20:30N 28°08' W 015°25'0 0.0
2017-Jun-19 20:00N 28°08' W 015°25'0 0.0
2017-Jun-19 19:30N 28°08' W 015°25'0 0.0
2017-Jun-19 19:00N 28°08' W 015°25'0 0.0
2017-Jun-19 18:30N 28°08' W 015°25'0 0.0
2017-Jun-19 18:00N 28°08' W 015°25'0 0.0
2017-Jun-19 17:30N 28°08' W 015°25'0 0.0
2017-Jun-19 17:00N 28°08' W 015°25'0 0.0
2017-Jun-19 16:30N 28°08' W 015°25'0 0.0
2017-Jun-19 16:00N 28°08' W 015°25'0 0.0
2017-Jun-19 15:30N 28°08' W 015°25'0 0.0
2017-Jun-19 15:00N 28°08' W 015°25'0 0.0
2017-Jun-19 14:30N 28°08' W 015°25'0 0.0
2017-Jun-19 13:30N 28°08' W 015°25'0 0.0
2017-Jun-19 13:00N 28°08' W 015°25'0 0.0
2017-Jun-19 12:30N 28°08' W 015°25'0 0.0
2017-Jun-19 12:00N 28°08' W 015°25'0 0.0
2017-Jun-19 11:30N 28°08' W 015°25'0 0.0
2017-Jun-19 11:00N 28°08' W 015°25'0 0.0
2017-Jun-19 10:30N 28°08' W 015°25'0 0.0
2017-Jun-19 10:00N 28°08' W 015°25'0 0.0
2017-Jun-19 09:30N 28°08' W 015°25'0 0.0
2017-Jun-19 09:00N 28°08' W 015°25'0 0.0
2017-Jun-19 08:30N 28°08' W 015°25'0 0.0
2017-Jun-19 08:00N 28°08' W 015°25'0 0.0
2017-Jun-19 07:30N 28°08' W 015°25'0 0.0
2017-Jun-19 07:00N 28°08' W 015°25'0 0.0
2017-Jun-19 06:30N 28°08' W 015°25'0 0.0
2017-Jun-19 06:00N 28°08' W 015°25'0 0.0
2017-Jun-19 05:30N 28°08' W 015°25'0 0.0
2017-Jun-19 05:00N 28°08' W 015°25'0 0.0
2017-Jun-19 04:31N 28°08' W 015°25'0 0.0
2017-Jun-19 04:00N 28°08' W 015°25'0 0.0
2017-Jun-19 03:31N 28°08' W 015°25'0 0.0
2017-Jun-19 03:00N 28°08' W 015°25'0 0.0
2017-Jun-19 02:30N 28°08' W 015°25'0 0.0
2017-Jun-19 02:00N 28°08' W 015°25'0 0.0
2017-Jun-19 01:30N 28°08' W 015°25'0 0.0
2017-Jun-19 01:00N 28°08' W 015°25'0 0.0
2017-Jun-19 00:30N 28°08' W 015°25'0 0.0
2017-Jun-19 00:00N 28°08' W 015°25'0 0.0
2017-Jun-18 23:30N 28°08' W 015°25'0 0.0
2017-Jun-18 23:00N 28°08' W 015°25'0 0.0
2017-Jun-18 22:30N 28°08' W 015°25'0 0.0
2017-Jun-18 22:00N 28°08' W 015°25'0 0.0
2017-Jun-18 21:30N 28°08' W 015°25'0 0.0
2017-Jun-18 21:00N 28°08' W 015°25'0 0.0
2017-Jun-18 20:30N 28°08' W 015°25'0 0.0
2017-Jun-18 20:00N 28°08' W 015°25'0 0.0
2017-Jun-18 19:30N 28°08' W 015°25'0 0.0
2017-Jun-18 19:00N 28°08' W 015°25'0 0.0
2017-Jun-18 18:31N 28°08' W 015°25'0 0.0
2017-Jun-18 18:00N 28°08' W 015°25'0 0.0
2017-Jun-18 17:30N 28°08' W 015°25'0 0.0
2017-Jun-18 17:00N 28°08' W 015°25'0 0.0
2017-Jun-18 16:30N 28°08' W 015°25'0 0.0
2017-Jun-18 16:00N 28°08' W 015°25'0 0.0
2017-Jun-18 15:30N 28°08' W 015°25'0 0.0
2017-Jun-18 15:00N 28°08' W 015°25'0 0.0
2017-Jun-18 14:00N 28°08' W 015°25'0 0.0
2017-Jun-18 13:30N 28°08' W 015°25'0 0.0
2017-Jun-18 13:00N 28°08' W 015°25'0 0.0
2017-Jun-18 12:31N 28°08' W 015°25'0 0.0
2017-Jun-18 12:00N 28°08' W 015°25'0 0.0
2017-Jun-18 11:30N 28°08' W 015°25'0 0.0
2017-Jun-18 11:00N 28°08' W 015°25'0 0.0
2017-Jun-18 10:30N 28°08' W 015°25'0 0.0
2017-Jun-18 10:00N 28°08' W 015°25'0 0.0
2017-Jun-18 09:30N 28°08' W 015°25'0 0.0
2017-Jun-18 09:00N 28°08' W 015°25'0 0.0
2017-Jun-18 08:30N 28°08' W 015°25'0 0.0
2017-Jun-18 08:00N 28°08' W 015°25'0 0.0
2017-Jun-18 07:30N 28°08' W 015°25'0 0.0
2017-Jun-18 07:00N 28°08' W 015°25'0 0.0
2017-Jun-18 06:30N 28°08' W 015°25'0 0.0
2017-Jun-18 06:00N 28°08' W 015°25'0 0.0
2017-Jun-18 05:30N 28°08' W 015°25'0 0.0
2017-Jun-18 05:00N 28°08' W 015°25'0 0.0
2017-Jun-18 04:30N 28°08' W 015°25'0 0.0
2017-Jun-18 04:00N 28°08' W 015°25'0 0.0
2017-Jun-18 03:30N 28°08' W 015°25'0 0.0
2017-Jun-18 03:00N 28°08' W 015°25'0 0.0
2017-Jun-18 02:30N 28°08' W 015°25'0 0.0
2017-Jun-18 02:00N 28°08' W 015°25'0 0.0
2017-Jun-18 01:30N 28°08' W 015°25'0 0.0
2017-Jun-18 01:00N 28°08' W 015°25'0 0.0
2017-Jun-18 00:30N 28°08' W 015°25'0 0.0
2017-Jun-18 00:00N 28°08' W 015°25'0 0.0
2017-Jun-17 23:31N 28°08' W 015°25'0 0.0
2017-Jun-17 23:00N 28°08' W 015°25'0 0.0
2017-Jun-17 22:31N 28°08' W 015°25'0 0.0
2017-Jun-17 22:00N 28°08' W 015°25'0 0.0
2017-Jun-17 21:30N 28°08' W 015°25'0 0.0
2017-Jun-17 21:00N 28°08' W 015°25'0 0.0
2017-Jun-17 20:30N 28°08' W 015°25'0 0.0
2017-Jun-17 20:00N 28°08' W 015°25'0 0.0
2017-Jun-17 19:30N 28°08' W 015°25'0 0.0
2017-Jun-17 19:00N 28°08' W 015°25'0 0.0
2017-Jun-17 18:30N 28°08' W 015°25'0 0.0
2017-Jun-17 18:00N 28°08' W 015°25'0 0.0
2017-Jun-17 17:30N 28°08' W 015°25'0 0.0
2017-Jun-17 17:00N 28°08' W 015°25'0 0.0
2017-Jun-17 16:30N 28°08' W 015°25'3 6.2
2017-Jun-17 16:01N 28°07' W 015°22'816.4
2017-Jun-17 15:30N 28°06' W 015°13'816.4
2017-Jun-17 15:01N 28°05' W 015°03'816.3
2017-Jun-17 14:30N 28°04' W 014°54'1616.4
2017-Jun-17 13:30N 28°02' W 014°36'816.0
2017-Jun-17 13:00N 28°01' W 014°27'1116.1
2017-Jun-17 12:20N 28°03' W 014°15'617.0
2017-Jun-17 11:58N 28°06' W 014°09'27 4.2
2017-Jun-17 05:38N 28°27' W 013°50'416.0
2017-Jun-17 05:24N 28°23' W 013°50'1815.3
2017-Jun-17 04:13N 28°09' W 014°02'316.5
2017-Jun-17 04:00N 28°08' W 014°06'3315.2
2017-Jun-17 01:48N 28°03' W 014°43'515.8
2017-Jun-17 01:31N 28°03' W 014°48'815.7
2017-Jun-17 01:00N 28°04' W 014°57'815.6
2017-Jun-17 00:30N 28°05' W 015°06'815.6
2017-Jun-17 00:00N 28°06' W 015°15'815.7
2017-Jun-16 23:30N 28°07' W 015°23'2 3.4
2017-Jun-16 23:00N 28°08' W 015°25'0 0.0
2017-Jun-16 22:30N 28°08' W 015°25'0 0.0
2017-Jun-16 22:00N 28°08' W 015°25'0 0.0
2017-Jun-16 21:30N 28°08' W 015°25'0 0.0
2017-Jun-16 21:00N 28°08' W 015°25'0 0.0
2017-Jun-16 20:30N 28°08' W 015°25'0 0.0
2017-Jun-16 20:00N 28°08' W 015°25'0 0.0
2017-Jun-16 19:30N 28°08' W 015°25'0 0.0
2017-Jun-16 19:00N 28°08' W 015°25'0 0.0
2017-Jun-16 18:30N 28°08' W 015°25'0 0.0
2017-Jun-16 18:00N 28°08' W 015°25'0 0.0
2017-Jun-16 17:30N 28°08' W 015°25'0 0.0
2017-Jun-16 17:00N 28°08' W 015°25'0 0.0
2017-Jun-16 16:30N 28°08' W 015°25'4 8.6
2017-Jun-16 16:00N 28°06' W 015°20'815.8
2017-Jun-16 15:30N 28°06' W 015°11'815.7
2017-Jun-16 15:00N 28°05' W 015°03'815.8
2017-Jun-16 14:30N 28°04' W 014°54'1615.7
2017-Jun-16 13:30N 28°02' W 014°36'915.9
2017-Jun-16 12:58N 28°01' W 014°26'1216.2
2017-Jun-16 12:15N 28°04' W 014°13'517.1
2017-Jun-16 11:56N 28°07' W 014°08'43 2.0
2017-Jun-15 14:42N 28°04' W 014°57'1116.0
2017-Jun-15 14:00N 28°03' W 014°44'815.8
2017-Jun-15 13:30N 28°02' W 014°35'816.1
2017-Jun-15 12:59N 28°01' W 014°26'1116.1
2017-Jun-15 12:19N 28°04' W 014°14'617.2
2017-Jun-15 12:00N 28°07' W 014°09'1 0.0
2017-Jun-14 12:00N 28°07' W 014°08'5 0.6
2017-Jun-14 03:49N 28°09' W 014°03'3515.0
2017-Jun-14 01:31N 28°03' W 014°41'315.9
2017-Jun-14 01:20N 28°03' W 014°44'515.8
2017-Jun-14 01:00N 28°04' W 014°50'815.8
2017-Jun-14 00:30N 28°05' W 014°59'815.8
2017-Jun-14 00:00N 28°05' W 015°08'815.6
2017-Jun-13 23:30N 28°06' W 015°17'714.1
2017-Jun-13 23:00N 28°08' W 015°25'1 1.4
2017-Jun-13 22:30N 28°08' W 015°25'0 0.0
2017-Jun-13 22:00N 28°08' W 015°25'0 0.0
2017-Jun-13 21:30N 28°08' W 015°25'0 0.0
2017-Jun-13 21:00N 28°08' W 015°25'0 0.0
2017-Jun-13 20:30N 28°08' W 015°25'0 0.0
2017-Jun-13 20:00N 28°08' W 015°25'0 0.0
2017-Jun-13 19:31N 28°08' W 015°25'0 0.0
2017-Jun-13 19:01N 28°08' W 015°25'0 0.0
2017-Jun-13 18:31N 28°08' W 015°25'0 0.0
2017-Jun-13 18:01N 28°08' W 015°25'0 0.0
2017-Jun-13 17:31N 28°08' W 015°25'0 0.0
2017-Jun-13 17:01N 28°08' W 015°25'0 0.1
2017-Jun-13 16:31N 28°08' W 015°25'4 8.6
2017-Jun-13 16:00N 28°06' W 015°20'816.1
2017-Jun-13 15:30N 28°06' W 015°11'815.9
2017-Jun-13 15:00N 28°05' W 015°02'1616.3
2017-Jun-13 14:00N 28°03' W 014°44'816.0
2017-Jun-13 13:30N 28°02' W 014°35'916.7
2017-Jun-13 13:00N 28°01' W 014°25'1116.5
2017-Jun-13 12:21N 28°04' W 014°14'617.2
2017-Jun-13 12:00N 28°07' W 014°08'  

Dump ship's entire track history